sensor_id;sensor_type;location;lat;lon;timestamp;temperature;humidity
71096;DHT22;58753;49.440;11.126;2022-07-29T00:00:20;21.30;45.54
71096;DHT22;58753;49.440;11.126;2022-07-29T00:02:46;21.32;45.51
71096;DHT22;58753;49.440;11.126;2022-07-29T00:05:11;21.32;45.54
71096;DHT22;58753;49.440;11.126;2022-07-29T00:11:08;21.29;45.49
71096;DHT22;58753;49.440;11.126;2022-07-29T00:13:33;21.29;45.57
71096;DHT22;58753;49.440;11.126;2022-07-29T00:15:59;21.26;45.55
71096;DHT22;58753;49.440;11.126;2022-07-29T00:34:29;21.22;46.16
71096;DHT22;58753;49.440;11.126;2022-07-29T00:37:13;21.18;46.43
71096;DHT22;58753;49.440;11.126;2022-07-29T00:39:39;21.18;46.45
71096;DHT22;58753;49.440;11.126;2022-07-29T00:42:04;21.18;46.62
71096;DHT22;58753;49.440;11.126;2022-07-29T00:44:30;21.15;46.76
71096;DHT22;58753;49.440;11.126;2022-07-29T00:49:27;21.09;47.06
71096;DHT22;58753;49.440;11.126;2022-07-29T00:51:53;21.08;47.20
71096;DHT22;58753;49.440;11.126;2022-07-29T00:54:18;21.05;47.41
71096;DHT22;58753;49.440;11.126;2022-07-29T00:56:44;21.00;47.59
71096;DHT22;58753;49.440;11.126;2022-07-29T00:59:09;20.96;47.43
71096;DHT22;58753;49.440;11.126;2022-07-29T01:01:34;20.98;47.18
71096;DHT22;58753;49.440;11.126;2022-07-29T01:04:00;20.95;47.10
71096;DHT22;58753;49.440;11.126;2022-07-29T01:11:48;20.89;46.45
71096;DHT22;58753;49.440;11.126;2022-07-29T01:14:14;20.92;45.85
71096;DHT22;58753;49.440;11.126;2022-07-29T01:16:47;20.95;45.69
71096;DHT22;58753;49.440;11.126;2022-07-29T01:30:44;20.96;45.94
71096;DHT22;58753;49.440;11.126;2022-07-29T01:33:13;20.96;46.10
71096;DHT22;58753;49.440;11.126;2022-07-29T01:36:07;20.95;46.19
71096;DHT22;58753;49.440;11.126;2022-07-29T01:38:35;20.95;46.38
71096;DHT22;58753;49.440;11.126;2022-07-29T01:41:05;20.92;46.93
71096;DHT22;58753;49.440;11.126;2022-07-29T01:47:10;20.79;47.87
71096;DHT22;58753;49.440;11.126;2022-07-29T01:49:39;20.74;47.96
71096;DHT22;58753;49.440;11.126;2022-07-29T01:52:08;20.68;48.42
71096;DHT22;58753;49.440;11.126;2022-07-29T01:54:45;20.61;48.72
71096;DHT22;58753;49.440;11.126;2022-07-29T01:57:15;20.51;49.22
71096;DHT22;58753;49.440;11.126;2022-07-29T01:59:43;20.44;49.84
71096;DHT22;58753;49.440;11.126;2022-07-29T02:02:11;20.38;50.26
71096;DHT22;58753;49.440;11.126;2022-07-29T02:04:39;20.27;50.31
71096;DHT22;58753;49.440;11.126;2022-07-29T02:07:07;20.17;50.40
71096;DHT22;58753;49.440;11.126;2022-07-29T02:09:36;20.10;50.35
71096;DHT22;58753;49.440;11.126;2022-07-29T02:15:15;20.01;51.08
71096;DHT22;58753;49.440;11.126;2022-07-29T02:17:45;19.98;51.32
71096;DHT22;58753;49.440;11.126;2022-07-29T02:20:12;19.92;51.32
71096;DHT22;58753;49.440;11.126;2022-07-29T02:22:39;19.84;51.42
71096;DHT22;58753;49.440;11.126;2022-07-29T02:25:38;19.77;51.55
71096;DHT22;58753;49.440;11.126;2022-07-29T02:28:05;19.73;51.78
71096;DHT22;58753;49.440;11.126;2022-07-29T02:30:32;19.69;51.97
71096;DHT22;58753;49.440;11.126;2022-07-29T02:32:58;19.61;52.07
71096;DHT22;58753;49.440;11.126;2022-07-29T02:35:24;19.58;52.27
71096;DHT22;58753;49.440;11.126;2022-07-29T02:37:50;19.55;52.43
71096;DHT22;58753;49.440;11.126;2022-07-29T02:40:38;19.55;52.72
71096;DHT22;58753;49.440;11.126;2022-07-29T02:43:05;19.52;52.87
71096;DHT22;58753;49.440;11.126;2022-07-29T02:45:32;19.56;52.48
71096;DHT22;58753;49.440;11.126;2022-07-29T02:47:59;19.56;52.27
71096;DHT22;58753;49.440;11.126;2022-07-29T03:04:09;19.53;52.52
71096;DHT22;58753;49.440;11.126;2022-07-29T03:06:37;19.49;52.84
71096;DHT22;58753;49.440;11.126;2022-07-29T03:09:03;19.49;53.22
71096;DHT22;58753;49.440;11.126;2022-07-29T03:11:30;19.46;53.36
71096;DHT22;58753;49.440;11.126;2022-07-29T03:23:27;19.42;54.33
71096;DHT22;58753;49.440;11.126;2022-07-29T03:25:54;19.38;54.14
71096;DHT22;58753;49.440;11.126;2022-07-29T03:28:20;19.36;54.25
71096;DHT22;58753;49.440;11.126;2022-07-29T03:30:46;19.33;54.37
71096;DHT22;58753;49.440;11.126;2022-07-29T03:33:11;19.33;54.68
71096;DHT22;58753;49.440;11.126;2022-07-29T03:38:02;19.25;54.66
71096;DHT22;58753;49.440;11.126;2022-07-29T03:40:35;19.22;54.91
71096;DHT22;58753;49.440;11.126;2022-07-29T03:43:02;19.19;55.05
71096;DHT22;58753;49.440;11.126;2022-07-29T03:45:28;19.19;55.09
71096;DHT22;58753;49.440;11.126;2022-07-29T03:48:01;19.18;54.96
71096;DHT22;58753;49.440;11.126;2022-07-29T03:50:28;19.14;54.75
71096;DHT22;58753;49.440;11.126;2022-07-29T03:52:55;19.12;54.49
71096;DHT22;58753;49.440;11.126;2022-07-29T03:59:30;18.98;56.03
71096;DHT22;58753;49.440;11.126;2022-07-29T04:01:56;18.97;56.69
71096;DHT22;58753;49.440;11.126;2022-07-29T04:04:22;18.92;57.34
71096;DHT22;58753;49.440;11.126;2022-07-29T04:06:47;18.85;57.92
71096;DHT22;58753;49.440;11.126;2022-07-29T04:09:13;18.78;58.34
71096;DHT22;58753;49.440;11.126;2022-07-29T04:16:29;18.68;59.16
71096;DHT22;58753;49.440;11.126;2022-07-29T04:18:55;18.70;59.30
71096;DHT22;58753;49.440;11.126;2022-07-29T04:21:20;18.64;59.51
71096;DHT22;58753;49.440;11.126;2022-07-29T04:23:45;18.64;59.71
71096;DHT22;58753;49.440;11.126;2022-07-29T04:38:28;18.63;57.97
71096;DHT22;58753;49.440;11.126;2022-07-29T04:40:54;18.60;58.25
71096;DHT22;58753;49.440;11.126;2022-07-29T04:45:44;18.65;58.76
71096;DHT22;58753;49.440;11.126;2022-07-29T04:48:10;18.60;58.43
71096;DHT22;58753;49.440;11.126;2022-07-29T05:00:49;18.43;60.37
71096;DHT22;58753;49.440;11.126;2022-07-29T05:03:15;18.38;60.77
71096;DHT22;58753;49.440;11.126;2022-07-29T05:05:40;18.37;61.19
71096;DHT22;58753;49.440;11.126;2022-07-29T05:08:06;18.34;61.54
71096;DHT22;58753;49.440;11.126;2022-07-29T05:10:31;18.32;62.07
71096;DHT22;58753;49.440;11.126;2022-07-29T05:12:57;18.30;62.55
71096;DHT22;58753;49.440;11.126;2022-07-29T05:15:23;18.32;62.78
71096;DHT22;58753;49.440;11.126;2022-07-29T05:17:48;18.34;62.96
71096;DHT22;58753;49.440;11.126;2022-07-29T05:20:14;18.43;63.26
71096;DHT22;58753;49.440;11.126;2022-07-29T05:25:28;18.61;62.84
71096;DHT22;58753;49.440;11.126;2022-07-29T05:27:54;18.68;62.97
71096;DHT22;58753;49.440;11.126;2022-07-29T05:30:20;18.72;62.87
71096;DHT22;58753;49.440;11.126;2022-07-29T05:32:45;18.78;62.76
71096;DHT22;58753;49.440;11.126;2022-07-29T05:35:11;18.84;62.59
71096;DHT22;58753;49.440;11.126;2022-07-29T05:37:37;18.95;62.52
71096;DHT22;58753;49.440;11.126;2022-07-29T05:40:03;19.01;62.10
71096;DHT22;58753;49.440;11.126;2022-07-29T05:53:14;19.33;58.76
71096;DHT22;58753;49.440;11.126;2022-07-29T05:55:39;19.42;58.27
71096;DHT22;58753;49.440;11.126;2022-07-29T05:58:04;19.56;57.89
71096;DHT22;58753;49.440;11.126;2022-07-29T06:00:30;19.67;57.61
71096;DHT22;58753;49.440;11.126;2022-07-29T06:02:55;19.74;57.02
71096;DHT22;58753;49.440;11.126;2022-07-29T06:05:22;19.84;56.61
71096;DHT22;58753;49.440;11.126;2022-07-29T06:08:19;19.94;55.99
71096;DHT22;58753;49.440;11.126;2022-07-29T06:10:45;20.06;55.58
71096;DHT22;58753;49.440;11.126;2022-07-29T06:13:11;20.16;55.19
71096;DHT22;58753;49.440;11.126;2022-07-29T06:15:37;20.27;55.08
71096;DHT22;58753;49.440;11.126;2022-07-29T06:18:02;20.43;54.86
71096;DHT22;58753;49.440;11.126;2022-07-29T06:20:29;20.51;54.39
71096;DHT22;58753;49.440;11.126;2022-07-29T06:22:55;20.55;53.88
71096;DHT22;58753;49.440;11.126;2022-07-29T06:25:28;20.68;53.24
71096;DHT22;58753;49.440;11.126;2022-07-29T06:27:59;20.78;52.87
71096;DHT22;58753;49.440;11.126;2022-07-29T06:30:25;20.85;52.26
71096;DHT22;58753;49.440;11.126;2022-07-29T06:32:50;20.94;51.47
71096;DHT22;58753;49.440;11.126;2022-07-29T06:35:16;21.02;51.05
71096;DHT22;58753;49.440;11.126;2022-07-29T06:48:53;21.43;50.43
71096;DHT22;58753;49.440;11.126;2022-07-29T06:51:20;21.50;50.05
71096;DHT22;58753;49.440;11.126;2022-07-29T06:53:45;21.59;49.94
71096;DHT22;58753;49.440;11.126;2022-07-29T06:56:11;21.69;49.75
71096;DHT22;58753;49.440;11.126;2022-07-29T07:03:52;21.90;49.10
71096;DHT22;58753;49.440;11.126;2022-07-29T07:06:17;21.98;48.66
71096;DHT22;58753;49.440;11.126;2022-07-29T07:08:43;22.07;48.69
71096;DHT22;58753;49.440;11.126;2022-07-29T07:11:08;22.13;48.93
71096;DHT22;58753;49.440;11.126;2022-07-29T07:13:34;22.08;48.83
71096;DHT22;58753;49.440;11.126;2022-07-29T07:16:01;22.11;49.16
71096;DHT22;58753;49.440;11.126;2022-07-29T07:21:30;22.15;49.42
71096;DHT22;58753;49.440;11.126;2022-07-29T07:23:55;22.14;49.96
71096;DHT22;58753;49.440;11.126;2022-07-29T07:26:21;22.18;50.34
71096;DHT22;58753;49.440;11.126;2022-07-29T07:28:46;22.20;50.50
71096;DHT22;58753;49.440;11.126;2022-07-29T07:31:11;22.22;50.42
71096;DHT22;58753;49.440;11.126;2022-07-29T07:33:37;22.38;49.96
71096;DHT22;58753;49.440;11.126;2022-07-29T07:38:28;22.52;49.35
71096;DHT22;58753;49.440;11.126;2022-07-29T07:40:53;22.59;49.34
71096;DHT22;58753;49.440;11.126;2022-07-29T07:43:18;22.65;49.17
71096;DHT22;58753;49.440;11.126;2022-07-29T07:45:44;22.69;49.23
71096;DHT22;58753;49.440;11.126;2022-07-29T07:56:30;23.07;48.87
71096;DHT22;58753;49.440;11.126;2022-07-29T07:58:55;23.12;48.78
71096;DHT22;58753;49.440;11.126;2022-07-29T08:01:21;23.17;48.85
71096;DHT22;58753;49.440;11.126;2022-07-29T08:03:49;23.22;48.31
71096;DHT22;58753;49.440;11.126;2022-07-29T08:06:14;23.27;48.01
71096;DHT22;58753;49.440;11.126;2022-07-29T08:23:06;23.59;47.58
71096;DHT22;58753;49.440;11.126;2022-07-29T08:25:35;23.60;47.61
71096;DHT22;58753;49.440;11.126;2022-07-29T08:28:00;23.59;47.99
71096;DHT22;58753;49.440;11.126;2022-07-29T08:30:26;23.54;48.10
71096;DHT22;58753;49.440;11.126;2022-07-29T08:32:51;23.63;47.97
71096;DHT22;58753;49.440;11.126;2022-07-29T08:35:19;23.82;47.40
71096;DHT22;58753;49.440;11.126;2022-07-29T08:37:44;23.91;47.21
71096;DHT22;58753;49.440;11.126;2022-07-29T08:40:11;23.96;47.15
71096;DHT22;58753;49.440;11.126;2022-07-29T08:42:37;23.96;46.80
71096;DHT22;58753;49.440;11.126;2022-07-29T08:45:03;24.00;46.93
71096;DHT22;58753;49.440;11.126;2022-07-29T08:47:29;24.04;46.31
71096;DHT22;58753;49.440;11.126;2022-07-29T08:49:54;24.20;46.57
71096;DHT22;58753;49.440;11.126;2022-07-29T08:52:33;24.36;46.09
71096;DHT22;58753;49.440;11.126;2022-07-29T08:55:01;24.47;46.17
71096;DHT22;58753;49.440;11.126;2022-07-29T08:57:27;24.53;46.25
71096;DHT22;58753;49.440;11.126;2022-07-29T08:59:54;24.58;46.00
71096;DHT22;58753;49.440;11.126;2022-07-29T09:02:21;24.62;46.23
71096;DHT22;58753;49.440;11.126;2022-07-29T09:05:29;24.75;45.98
71096;DHT22;58753;49.440;11.126;2022-07-29T09:07:55;24.85;46.05
71096;DHT22;58753;49.440;11.126;2022-07-29T09:10:20;24.93;46.31
71096;DHT22;58753;49.440;11.126;2022-07-29T09:12:46;25.13;46.76
71096;DHT22;58753;49.440;11.126;2022-07-29T09:15:11;25.26;46.33
71096;DHT22;58753;49.440;11.126;2022-07-29T09:21:09;25.61;45.19
71096;DHT22;58753;49.440;11.126;2022-07-29T09:26:34;25.78;43.99
71096;DHT22;58753;49.440;11.126;2022-07-29T09:29:32;25.95;44.10
71096;DHT22;58753;49.440;11.126;2022-07-29T09:31:57;26.19;43.56
71096;DHT22;58753;49.440;11.126;2022-07-29T09:34:25;26.29;42.87
71096;DHT22;58753;49.440;11.126;2022-07-29T09:36:52;26.29;42.18
71096;DHT22;58753;49.440;11.126;2022-07-29T09:46:59;26.38;41.93
71096;DHT22;58753;49.440;11.126;2022-07-29T09:49:31;26.45;41.60
71096;DHT22;58753;49.440;11.126;2022-07-29T09:52:05;26.48;41.76
71096;DHT22;58753;49.440;11.126;2022-07-29T09:54:31;26.49;41.88
71096;DHT22;58753;49.440;11.126;2022-07-29T09:57:06;26.49;41.58
71096;DHT22;58753;49.440;11.126;2022-07-29T09:59:32;26.59;41.13
71096;DHT22;58753;49.440;11.126;2022-07-29T10:02:31;26.60;41.37
71096;DHT22;58753;49.440;11.126;2022-07-29T10:04:57;26.72;42.04
71096;DHT22;58753;49.440;11.126;2022-07-29T10:07:24;26.84;42.28
71096;DHT22;58753;49.440;11.126;2022-07-29T10:09:53;26.94;42.30
71096;DHT22;58753;49.440;11.126;2022-07-29T10:12:19;27.01;42.60
71096;DHT22;58753;49.440;11.126;2022-07-29T10:14:45;26.99;42.34
71096;DHT22;58753;49.440;11.126;2022-07-29T10:17:11;27.03;42.56
71096;DHT22;58753;49.440;11.126;2022-07-29T10:19:37;27.07;42.86
71096;DHT22;58753;49.440;11.126;2022-07-29T10:22:06;27.15;43.11
71096;DHT22;58753;49.440;11.126;2022-07-29T10:34:44;27.43;42.00
71096;DHT22;58753;49.440;11.126;2022-07-29T10:37:26;27.43;41.54
71096;DHT22;58753;49.440;11.126;2022-07-29T10:40:28;27.53;41.76
71096;DHT22;58753;49.440;11.126;2022-07-29T10:43:27;27.65;41.33
71096;DHT22;58753;49.440;11.126;2022-07-29T10:45:59;27.74;41.11
71096;DHT22;58753;49.440;11.126;2022-07-29T10:48:25;27.57;40.81
71096;DHT22;58753;49.440;11.126;2022-07-29T11:05:04;27.03;42.50
71096;DHT22;58753;49.440;11.126;2022-07-29T11:07:31;26.96;42.86
71096;DHT22;58753;49.440;11.126;2022-07-29T11:19:21;26.79;44.08
71096;DHT22;58753;49.440;11.126;2022-07-29T11:21:47;26.87;44.25
71096;DHT22;58753;49.440;11.126;2022-07-29T11:24:14;26.89;44.25
71096;DHT22;58753;49.440;11.126;2022-07-29T11:26:40;26.94;44.34
71096;DHT22;58753;49.440;11.126;2022-07-29T11:29:17;26.99;44.50
71096;DHT22;58753;49.440;11.126;2022-07-29T11:31:49;27.06;44.69
71096;DHT22;58753;49.440;11.126;2022-07-29T11:39:32;27.23;44.23
71096;DHT22;58753;49.440;11.126;2022-07-29T11:47:33;27.38;44.59
71096;DHT22;58753;49.440;11.126;2022-07-29T11:50:01;27.72;43.94
71096;DHT22;58753;49.440;11.126;2022-07-29T11:52:44;28.06;43.75
71096;DHT22;58753;49.440;11.126;2022-07-29T12:05:42;29.18;40.90
71096;DHT22;58753;49.440;11.126;2022-07-29T12:08:16;29.39;40.73
71096;DHT22;58753;49.440;11.126;2022-07-29T12:10:47;29.59;40.18
71096;DHT22;58753;49.440;11.126;2022-07-29T12:13:15;29.83;39.71
71096;DHT22;58753;49.440;11.126;2022-07-29T12:15:41;29.99;38.72
71096;DHT22;58753;49.440;11.126;2022-07-29T12:18:17;30.23;38.17
71096;DHT22;58753;49.440;11.126;2022-07-29T12:20:43;30.34;38.18
71096;DHT22;58753;49.440;11.126;2022-07-29T12:23:09;30.41;37.57
71096;DHT22;58753;49.440;11.126;2022-07-29T12:25:37;30.32;37.58
71096;DHT22;58753;49.440;11.126;2022-07-29T12:40:58;30.43;36.34
71096;DHT22;58753;49.440;11.126;2022-07-29T12:43:24;30.19;36.23
71096;DHT22;58753;49.440;11.126;2022-07-29T12:45:57;29.86;35.75
71096;DHT22;58753;49.440;11.126;2022-07-29T12:50:55;29.27;35.95
71096;DHT22;58753;49.440;11.126;2022-07-29T12:53:21;29.17;36.62
71096;DHT22;58753;49.440;11.126;2022-07-29T12:58:37;28.97;37.76
71096;DHT22;58753;49.440;11.126;2022-07-29T13:03:52;28.79;38.77
71096;DHT22;58753;49.440;11.126;2022-07-29T13:06:29;28.67;39.32
71096;DHT22;58753;49.440;11.126;2022-07-29T13:25:31;28.01;47.41
71096;DHT22;58753;49.440;11.126;2022-07-29T13:27:57;27.59;48.14
71096;DHT22;58753;49.440;11.126;2022-07-29T13:30:23;27.41;50.24
71096;DHT22;58753;49.440;11.126;2022-07-29T13:32:49;27.15;50.02
71096;DHT22;58753;49.440;11.126;2022-07-29T13:35:15;26.80;48.35
71096;DHT22;58753;49.440;11.126;2022-07-29T13:42:32;26.12;48.69
71096;DHT22;58753;49.440;11.126;2022-07-29T13:47:23;25.51;49.67
71096;DHT22;58753;49.440;11.126;2022-07-29T13:49:48;25.27;49.78
71096;DHT22;58753;49.440;11.126;2022-07-29T13:52:14;25.10;50.61
71096;DHT22;58753;49.440;11.126;2022-07-29T13:54:40;25.03;50.41
71096;DHT22;58753;49.440;11.126;2022-07-29T13:57:31;24.94;50.16
71096;DHT22;58753;49.440;11.126;2022-07-29T13:59:57;24.86;50.11
71096;DHT22;58753;49.440;11.126;2022-07-29T14:02:22;24.75;49.71
71096;DHT22;58753;49.440;11.126;2022-07-29T14:04:48;24.58;50.85
71096;DHT22;58753;49.440;11.126;2022-07-29T14:07:13;24.51;52.08
71096;DHT22;58753;49.440;11.126;2022-07-29T14:12:29;24.32;56.06
71096;DHT22;58753;49.440;11.126;2022-07-29T14:14:54;24.20;57.59
71096;DHT22;58753;49.440;11.126;2022-07-29T14:17:19;24.07;58.01
71096;DHT22;58753;49.440;11.126;2022-07-29T14:19:45;23.96;58.68
71096;DHT22;58753;49.440;11.126;2022-07-29T14:22:10;23.82;58.96
71096;DHT22;58753;49.440;11.126;2022-07-29T14:24:36;23.75;59.33
71096;DHT22;58753;49.440;11.126;2022-07-29T14:29:27;23.60;60.80
71096;DHT22;58753;49.440;11.126;2022-07-29T14:31:52;23.53;60.61
71096;DHT22;58753;49.440;11.126;2022-07-29T14:34:18;23.51;60.80
71096;DHT22;58753;49.440;11.126;2022-07-29T14:40:13;23.57;60.93
71096;DHT22;58753;49.440;11.126;2022-07-29T14:42:38;23.61;60.38
71096;DHT22;58753;49.440;11.126;2022-07-29T14:45:06;23.68;60.10
71096;DHT22;58753;49.440;11.126;2022-07-29T14:47:32;23.75;59.89
71096;DHT22;58753;49.440;11.126;2022-07-29T15:00:59;24.07;58.54
71096;DHT22;58753;49.440;11.126;2022-07-29T15:05:49;24.15;58.26
71096;DHT22;58753;49.440;11.126;2022-07-29T15:08:15;24.11;57.73
71096;DHT22;58753;49.440;11.126;2022-07-29T15:24:17;23.91;57.51
71096;DHT22;58753;49.440;11.126;2022-07-29T15:26:43;23.85;57.18
71096;DHT22;58753;49.440;11.126;2022-07-29T15:29:09;23.82;57.00
71096;DHT22;58753;49.440;11.126;2022-07-29T15:31:34;23.78;56.89
71096;DHT22;58753;49.440;11.126;2022-07-29T15:34:32;23.77;57.20
71096;DHT22;58753;49.440;11.126;2022-07-29T15:36:57;23.67;57.88
71096;DHT22;58753;49.440;11.126;2022-07-29T15:39:22;23.53;58.43
71096;DHT22;58753;49.440;11.126;2022-07-29T15:41:48;23.42;59.04
71096;DHT22;58753;49.440;11.126;2022-07-29T15:44:14;23.34;59.79
71096;DHT22;58753;49.440;11.126;2022-07-29T15:46:39;23.22;60.19
71096;DHT22;58753;49.440;11.126;2022-07-29T15:49:23;23.12;60.71
71096;DHT22;58753;49.440;11.126;2022-07-29T15:51:55;23.00;60.92
71096;DHT22;58753;49.440;11.126;2022-07-29T15:54:20;22.88;61.52
71096;DHT22;58753;49.440;11.126;2022-07-29T15:56:46;22.78;61.80
71096;DHT22;58753;49.440;11.126;2022-07-29T15:59:11;22.68;62.28
71096;DHT22;58753;49.440;11.126;2022-07-29T16:01:37;22.61;62.45
71096;DHT22;58753;49.440;11.126;2022-07-29T16:04:02;22.48;63.12
71096;DHT22;58753;49.440;11.126;2022-07-29T16:09:29;22.37;63.15
71096;DHT22;58753;49.440;11.126;2022-07-29T16:11:55;22.34;62.87
71096;DHT22;58753;49.440;11.126;2022-07-29T16:14:21;22.34;63.00
71096;DHT22;58753;49.440;11.126;2022-07-29T16:16:46;22.31;62.69
71096;DHT22;58753;49.440;11.126;2022-07-29T16:19:12;22.34;62.90
71096;DHT22;58753;49.440;11.126;2022-07-29T16:32:06;22.13;63.82
71096;DHT22;58753;49.440;11.126;2022-07-29T16:34:32;22.03;64.49
71096;DHT22;58753;49.440;11.126;2022-07-29T16:36:57;21.98;65.20
71096;DHT22;58753;49.440;11.126;2022-07-29T16:39:22;21.84;65.40
71096;DHT22;58753;49.440;11.126;2022-07-29T16:41:48;21.73;65.99
71096;DHT22;58753;49.440;11.126;2022-07-29T16:44:13;21.64;66.41
71096;DHT22;58753;49.440;11.126;2022-07-29T16:46:43;21.42;66.33
71096;DHT22;58753;49.440;11.126;2022-07-29T16:49:08;21.30;67.28
71096;DHT22;58753;49.440;11.126;2022-07-29T16:51:33;21.22;68.05
71096;DHT22;58753;49.440;11.126;2022-07-29T16:56:24;20.98;69.75
71096;DHT22;58753;49.440;11.126;2022-07-29T16:58:49;20.85;70.46
71096;DHT22;58753;49.440;11.126;2022-07-29T17:11:54;20.10;75.89
71096;DHT22;58753;49.440;11.126;2022-07-29T17:14:22;19.92;76.56
71096;DHT22;58753;49.440;11.126;2022-07-29T17:16:52;19.77;77.75
71096;DHT22;58753;49.440;11.126;2022-07-29T17:19:19;19.67;78.28
71096;DHT22;58753;49.440;11.126;2022-07-29T17:39:40;18.85;82.59
71096;DHT22;58753;49.440;11.126;2022-07-29T17:44:31;18.70;83.26
71096;DHT22;58753;49.440;11.126;2022-07-29T17:46:56;18.61;83.50
71096;DHT22;58753;49.440;11.126;2022-07-29T17:49:22;18.56;83.82
71096;DHT22;58753;49.440;11.126;2022-07-29T17:54:45;18.44;85.03
71096;DHT22;58753;49.440;11.126;2022-07-29T17:57:13;18.46;85.47
71096;DHT22;58753;49.440;11.126;2022-07-29T17:59:38;18.46;85.29
71096;DHT22;58753;49.440;11.126;2022-07-29T18:02:03;18.37;84.86
71096;DHT22;58753;49.440;11.126;2022-07-29T18:04:29;18.33;85.62
71096;DHT22;58753;49.440;11.126;2022-07-29T18:06:55;18.33;85.98
71096;DHT22;58753;49.440;11.126;2022-07-29T18:09:20;18.30;85.96
71096;DHT22;58753;49.440;11.126;2022-07-29T18:11:46;18.30;86.23
71096;DHT22;58753;49.440;11.126;2022-07-29T18:14:12;18.25;86.18
71096;DHT22;58753;49.440;11.126;2022-07-29T18:24:32;18.22;86.91
71096;DHT22;58753;49.440;11.126;2022-07-29T18:26:59;18.19;87.51
71096;DHT22;58753;49.440;11.126;2022-07-29T18:29:24;18.20;87.32
71096;DHT22;58753;49.440;11.126;2022-07-29T18:31:49;18.16;87.20
71096;DHT22;58753;49.440;11.126;2022-07-29T18:34:15;18.13;87.81
71096;DHT22;58753;49.440;11.126;2022-07-29T18:41:32;18.13;88.19
71096;DHT22;58753;49.440;11.126;2022-07-29T18:43:58;18.12;88.45
71096;DHT22;58753;49.440;11.126;2022-07-29T18:46:23;18.13;88.57
71096;DHT22;58753;49.440;11.126;2022-07-29T18:48:48;18.14;88.56
71096;DHT22;58753;49.440;11.126;2022-07-29T18:51:14;18.12;88.65
71096;DHT22;58753;49.440;11.126;2022-07-29T18:53:39;18.12;88.59
71096;DHT22;58753;49.440;11.126;2022-07-29T18:56:05;18.07;88.60
71096;DHT22;58753;49.440;11.126;2022-07-29T19:00:55;18.12;89.07
71096;DHT22;58753;49.440;11.126;2022-07-29T19:03:20;18.12;89.43
71096;DHT22;58753;49.440;11.126;2022-07-29T19:08:11;18.06;89.22
71096;DHT22;58753;49.440;11.126;2022-07-29T19:10:36;18.06;89.32
71096;DHT22;58753;49.440;11.126;2022-07-29T19:20:32;18.05;89.71
71096;DHT22;58753;49.440;11.126;2022-07-29T19:22:58;18.07;89.96
71096;DHT22;58753;49.440;11.126;2022-07-29T19:25:23;18.05;89.80
71096;DHT22;58753;49.440;11.126;2022-07-29T19:27:49;18.09;90.05
71096;DHT22;58753;49.440;11.126;2022-07-29T19:30:14;18.09;90.09
71096;DHT22;58753;49.440;11.126;2022-07-29T19:36:10;18.20;90.64
71096;DHT22;58753;49.440;11.126;2022-07-29T19:38:36;18.19;90.19
71096;DHT22;58753;49.440;11.126;2022-07-29T19:41:03;18.17;90.31
71096;DHT22;58753;49.440;11.126;2022-07-29T19:43:30;18.16;90.31
71096;DHT22;58753;49.440;11.126;2022-07-29T19:45:56;18.17;90.29
71096;DHT22;58753;49.440;11.126;2022-07-29T19:48:21;18.16;89.88
71096;DHT22;58753;49.440;11.126;2022-07-29T19:50:46;18.14;90.18
71096;DHT22;58753;49.440;11.126;2022-07-29T19:53:12;18.10;89.54
71096;DHT22;58753;49.440;11.126;2022-07-29T19:55:37;18.12;89.87
71096;DHT22;58753;49.440;11.126;2022-07-29T19:58:03;18.09;89.50
71096;DHT22;58753;49.440;11.126;2022-07-29T20:00:30;18.06;89.73
71096;DHT22;58753;49.440;11.126;2022-07-29T20:02:55;18.06;89.72
71096;DHT22;58753;49.440;11.126;2022-07-29T20:12:54;18.14;90.21
71096;DHT22;58753;49.440;11.126;2022-07-29T20:15:20;18.13;90.22
71096;DHT22;58753;49.440;11.126;2022-07-29T20:17:45;18.12;89.74
71096;DHT22;58753;49.440;11.126;2022-07-29T20:20:11;18.13;90.20
71096;DHT22;58753;49.440;11.126;2022-07-29T20:26:05;18.14;90.04
71096;DHT22;58753;49.440;11.126;2022-07-29T20:28:31;18.14;90.23
71096;DHT22;58753;49.440;11.126;2022-07-29T20:30:57;18.16;90.20
71096;DHT22;58753;49.440;11.126;2022-07-29T20:33:22;18.17;90.12
71096;DHT22;58753;49.440;11.126;2022-07-29T20:40:53;18.13;90.08
71096;DHT22;58753;49.440;11.126;2022-07-29T20:43:22;18.13;90.25
71096;DHT22;58753;49.440;11.126;2022-07-29T20:45:48;18.16;90.35
71096;DHT22;58753;49.440;11.126;2022-07-29T20:48:13;18.12;90.36
71096;DHT22;58753;49.440;11.126;2022-07-29T20:54:07;18.17;90.46
71096;DHT22;58753;49.440;11.126;2022-07-29T20:56:33;18.16;90.56
71096;DHT22;58753;49.440;11.126;2022-07-29T21:01:24;18.12;90.49
71096;DHT22;58753;49.440;11.126;2022-07-29T21:04:29;18.12;90.67
71096;DHT22;58753;49.440;11.126;2022-07-29T21:06:56;18.09;90.78
71096;DHT22;58753;49.440;11.126;2022-07-29T21:09:21;18.13;90.73
71096;DHT22;58753;49.440;11.126;2022-07-29T21:11:46;18.07;90.62
71096;DHT22;58753;49.440;11.126;2022-07-29T21:14:12;18.07;91.03
71096;DHT22;58753;49.440;11.126;2022-07-29T21:17:03;18.13;91.09
71096;DHT22;58753;49.440;11.126;2022-07-29T21:19:31;18.12;91.15
71096;DHT22;58753;49.440;11.126;2022-07-29T21:21:56;18.14;91.17
71096;DHT22;58753;49.440;11.126;2022-07-29T21:24:22;18.10;91.13
71096;DHT22;58753;49.440;11.126;2022-07-29T21:36:12;17.97;90.81
71096;DHT22;58753;49.440;11.126;2022-07-29T21:38:38;17.97;91.02
71096;DHT22;58753;49.440;11.126;2022-07-29T21:41:04;17.96;91.18
71096;DHT22;58753;49.440;11.126;2022-07-29T21:43:30;17.93;91.25
71096;DHT22;58753;49.440;11.126;2022-07-29T21:46:30;17.95;91.45
71096;DHT22;58753;49.440;11.126;2022-07-29T21:48:56;17.92;91.17
71096;DHT22;58753;49.440;11.126;2022-07-29T21:51:21;17.93;91.18
71096;DHT22;58753;49.440;11.126;2022-07-29T21:53:47;17.90;91.13
71096;DHT22;58753;49.440;11.126;2022-07-29T21:56:12;17.89;91.11
71096;DHT22;58753;49.440;11.126;2022-07-29T21:58:37;17.86;91.25
71096;DHT22;58753;49.440;11.126;2022-07-29T22:01:03;17.85;91.34
71096;DHT22;58753;49.440;11.126;2022-07-29T22:03:28;17.83;91.35
71096;DHT22;58753;49.440;11.126;2022-07-29T22:05:54;17.85;91.42
71096;DHT22;58753;49.440;11.126;2022-07-29T22:14:47;17.72;91.08
71096;DHT22;58753;49.440;11.126;2022-07-29T22:17:12;17.69;91.18
71096;DHT22;58753;49.440;11.126;2022-07-29T22:19:37;17.65;91.10
71096;DHT22;58753;49.440;11.126;2022-07-29T22:22:05;17.64;91.23
71096;DHT22;58753;49.440;11.126;2022-07-29T22:27:30;17.62;91.28
71096;DHT22;58753;49.440;11.126;2022-07-29T22:29:56;17.61;91.12